createdAt,value
2022-10-31T00:03:09.284Z,11.66
2022-10-31T00:14:08.837Z,11.33
2022-10-31T00:22:20.404Z,11.10
2022-10-31T01:35:13.129Z,9.90
2022-10-31T03:36:09.854Z,9.26
2022-10-31T04:27:46.671Z,8.52
2022-10-31T06:01:31.454Z,7.90
2022-10-31T06:02:19.208Z,7.88
2022-10-31T06:07:53.172Z,7.94
2022-10-31T06:13:19.018Z,7.90
2022-10-31T06:18:59.404Z,7.80
2022-10-31T06:21:48.002Z,7.76
2022-10-31T06:23:01.960Z,7.73
2022-10-31T06:23:48.509Z,7.72
2022-10-31T06:29:34.305Z,7.79
2022-10-31T06:30:35.154Z,7.86
2022-10-31T06:31:35.088Z,7.91
2022-10-31T06:32:35.187Z,8.01
2022-10-31T06:33:35.027Z,8.08
2022-10-31T06:34:35.193Z,8.09
2022-10-31T06:35:35.037Z,8.08
2022-10-31T06:36:34.996Z,8.11
2022-10-31T06:37:35.026Z,8.11
2022-10-31T06:38:35.073Z,8.09
2022-10-31T06:39:34.948Z,8.06
2022-10-31T06:40:35.058Z,8.06
2022-10-31T06:41:34.947Z,8.05
2022-10-31T06:42:34.953Z,8.04
2022-10-31T06:43:35.106Z,8.01
2022-10-31T06:59:40.764Z,8.11
2022-10-31T07:05:36.093Z,8.21
2022-10-31T07:09:17.242Z,8.29
2022-10-31T07:16:09.807Z,8.52
2022-10-31T07:18:34.977Z,8.62
2022-10-31T07:28:47.998Z,9.02
2022-10-31T07:29:22.161Z,9.08
2022-10-31T07:37:36.891Z,9.34
2022-10-31T07:38:37.846Z,9.33
2022-10-31T07:40:54.811Z,9.40
2022-10-31T07:41:56.025Z,9.47
2022-10-31T07:45:38.203Z,9.75
2022-10-31T07:46:36.474Z,9.73
2022-10-31T07:47:36.528Z,9.76
2022-10-31T08:01:23.696Z,10.19
2022-10-31T08:02:24.854Z,10.28
2022-10-31T08:03:25.904Z,10.45
2022-10-31T08:04:26.988Z,10.54
2022-10-31T08:05:24.864Z,10.64
2022-10-31T08:06:27.488Z,10.65
2022-10-31T08:07:24.757Z,10.68
2022-10-31T08:08:25.030Z,10.72
2022-10-31T08:09:24.906Z,10.71
2022-10-31T08:10:25.603Z,10.70
2022-10-31T08:11:24.672Z,10.67
2022-10-31T08:14:08.604Z,10.82
2022-10-31T08:22:09.736Z,10.97
2022-10-31T08:23:07.309Z,11.01
2022-10-31T08:24:07.498Z,11.01
2022-10-31T08:25:07.396Z,11.04
2022-10-31T08:26:07.263Z,11.05
2022-10-31T08:29:57.669Z,11.23
2022-10-31T08:30:58.543Z,11.25
2022-10-31T08:31:58.529Z,11.32
2022-10-31T08:32:58.621Z,11.40
2022-10-31T08:35:53.285Z,11.61
2022-10-31T08:36:53.956Z,11.63
2022-10-31T08:37:53.990Z,11.68
2022-10-31T08:38:59.127Z,11.77
2022-10-31T08:39:53.970Z,11.86
2022-10-31T08:40:53.921Z,12.00
2022-10-31T08:41:53.935Z,12.09
2022-10-31T08:42:54.090Z,12.18
2022-10-31T08:43:54.153Z,12.30
2022-10-31T08:44:54.870Z,12.39
2022-10-31T08:45:54.829Z,12.46
2022-10-31T08:46:54.020Z,12.51
2022-10-31T08:47:53.986Z,12.54
2022-10-31T08:48:53.925Z,12.54
2022-10-31T08:49:53.881Z,12.55
2022-10-31T08:50:53.826Z,12.55
2022-10-31T08:51:53.952Z,12.60
2022-10-31T08:53:05.377Z,12.60
2022-10-31T08:53:55.739Z,12.64
2022-10-31T08:54:57.820Z,12.71
2022-10-31T08:55:56.846Z,12.75
2022-10-31T08:56:53.904Z,12.79
2022-10-31T08:57:53.930Z,12.90
2022-10-31T08:58:54.050Z,12.97
2022-10-31T08:59:58.877Z,13.05
2022-10-31T09:00:53.891Z,13.12
2022-10-31T09:01:53.993Z,13.19
2022-10-31T09:02:53.921Z,13.22
2022-10-31T09:03:53.980Z,13.29
2022-10-31T09:04:54.108Z,13.39
2022-10-31T09:05:54.108Z,13.45
2022-10-31T09:07:53.804Z,13.65
2022-10-31T09:08:53.773Z,13.70
2022-10-31T09:09:53.956Z,13.82
2022-10-31T09:10:54.065Z,13.86
2022-10-31T09:11:53.778Z,13.90
2022-10-31T09:12:53.720Z,13.97
2022-10-31T09:13:53.678Z,14.07
2022-10-31T09:14:53.758Z,14.11
2022-10-31T09:15:53.761Z,14.18
2022-10-31T09:16:53.672Z,14.26
2022-10-31T09:17:53.597Z,14.33
2022-10-31T09:18:53.849Z,14.36
2022-10-31T09:19:53.662Z,14.43
2022-10-31T09:20:54.733Z,14.50
2022-10-31T09:21:54.345Z,14.55
2022-10-31T09:22:53.853Z,14.59
2022-10-31T09:23:54.255Z,14.59
2022-10-31T09:24:54.006Z,14.58
2022-10-31T09:25:53.645Z,14.65
2022-10-31T09:26:53.540Z,14.74
2022-10-31T09:27:53.647Z,14.70
2022-10-31T09:28:54.566Z,14.74
2022-10-31T09:29:53.870Z,14.85
2022-10-31T09:30:53.710Z,14.87
2022-10-31T09:31:53.557Z,14.93
2022-10-31T09:32:53.515Z,14.97
2022-10-31T09:33:53.626Z,15.02
2022-10-31T09:34:53.758Z,15.12
2022-10-31T09:35:54.291Z,15.15
2022-10-31T09:36:55.305Z,15.19
2022-10-31T09:37:55.423Z,15.17
2022-10-31T09:38:53.355Z,15.19
2022-10-31T09:39:53.394Z,15.27
2022-10-31T09:40:54.499Z,15.32
2022-10-31T09:41:57.108Z,15.35
2022-10-31T09:42:53.357Z,15.36
2022-10-31T09:43:53.388Z,15.36
2022-10-31T09:44:53.457Z,15.39
2022-10-31T09:45:53.284Z,15.33
2022-10-31T09:46:53.798Z,15.35
2022-10-31T09:47:53.933Z,15.30
2022-10-31T09:48:53.511Z,15.22
2022-10-31T09:49:53.457Z,15.15
2022-10-31T09:50:53.278Z,15.09
2022-10-31T09:51:53.439Z,15.04
2022-10-31T09:52:53.354Z,15.03
2022-10-31T09:53:53.279Z,15.00
2022-10-31T09:54:53.246Z,14.99
2022-10-31T09:55:53.252Z,14.99
2022-10-31T09:56:53.131Z,14.96
2022-10-31T09:57:53.157Z,14.96
2022-10-31T09:58:53.365Z,14.99
2022-10-31T09:59:53.124Z,14.99
2022-10-31T10:00:53.567Z,15.02
2022-10-31T10:01:53.301Z,15.04
2022-10-31T10:02:53.091Z,15.09
2022-10-31T10:03:53.077Z,15.12
2022-10-31T10:04:53.035Z,15.12
2022-10-31T10:05:53.262Z,15.14
2022-10-31T10:06:53.031Z,15.12
2022-10-31T10:07:53.127Z,15.12
2022-10-31T10:08:56.200Z,15.14
2022-10-31T10:09:59.799Z,15.12
2022-10-31T10:10:57.479Z,15.14
2022-10-31T10:12:00.294Z,15.15
2022-10-31T10:12:56.088Z,15.17
2022-10-31T10:13:55.294Z,15.19
2022-10-31T10:15:21.459Z,15.25
2022-10-31T10:15:52.958Z,15.27
2022-10-31T10:16:52.938Z,15.32
2022-10-31T10:17:52.915Z,15.35
2022-10-31T10:18:52.878Z,15.40
2022-10-31T10:19:52.912Z,15.44
2022-10-31T10:20:52.858Z,15.52
2022-10-31T10:21:52.871Z,15.60
2022-10-31T10:22:52.980Z,15.65
2022-10-31T10:23:52.954Z,15.72
2022-10-31T10:24:52.998Z,15.76
2022-10-31T10:25:53.034Z,15.76
2022-10-31T10:26:53.530Z,15.73
2022-10-31T10:27:53.094Z,15.73
2022-10-31T10:28:53.308Z,15.76
2022-10-31T10:29:52.979Z,15.75
2022-10-31T10:30:52.966Z,15.82
2022-10-31T10:31:52.811Z,15.82
2022-10-31T10:32:53.042Z,15.87
2022-10-31T10:33:52.912Z,15.91
2022-10-31T10:34:53.339Z,15.92
2022-10-31T10:37:12.097Z,16.00
2022-10-31T10:38:12.798Z,15.97
2022-10-31T10:39:12.740Z,15.95
2022-10-31T10:40:13.553Z,15.98
2022-10-31T10:47:30.266Z,16.01
2022-10-31T10:48:31.154Z,16.05
2022-10-31T10:49:31.164Z,16.01
2022-10-31T10:50:31.199Z,16.02
2022-10-31T10:51:39.107Z,16.05
2022-10-31T10:52:42.137Z,16.00
2022-10-31T10:53:31.031Z,16.01
2022-10-31T10:54:31.144Z,16.02
2022-10-31T10:55:32.514Z,16.06
2022-10-31T10:56:31.704Z,16.12
2022-10-31T11:00:51.509Z,16.10
2022-10-31T11:07:07.644Z,16.38
2022-10-31T11:10:10.383Z,16.59
2022-10-31T11:15:26.439Z,16.94
2022-10-31T11:16:26.220Z,17.05
2022-10-31T11:17:26.524Z,17.14
2022-10-31T11:19:45.735Z,17.09
2022-10-31T11:24:04.501Z,16.89
2022-10-31T11:29:47.642Z,16.90
2022-10-31T11:30:49.014Z,16.76
2022-10-31T11:31:48.110Z,16.75
2022-10-31T11:32:47.920Z,16.75
2022-10-31T11:33:47.882Z,16.71
2022-10-31T11:34:47.994Z,16.74
2022-10-31T11:35:49.072Z,16.79
2022-10-31T11:36:47.914Z,16.76
2022-10-31T11:37:50.755Z,16.69
2022-10-31T11:38:47.927Z,16.75
2022-10-31T11:39:47.866Z,16.79
2022-10-31T11:40:47.904Z,16.68
2022-10-31T11:41:47.817Z,16.65
2022-10-31T11:42:47.802Z,16.66
2022-10-31T11:43:47.811Z,16.71
2022-10-31T11:44:47.790Z,16.65
2022-10-31T11:45:47.795Z,16.57
2022-10-31T11:46:48.057Z,16.57
2022-10-31T11:47:47.961Z,16.57
2022-10-31T11:48:47.807Z,16.57
2022-10-31T11:49:47.802Z,16.56
2022-10-31T11:50:47.755Z,16.54
2022-10-31T11:51:47.775Z,16.50
2022-10-31T11:52:47.780Z,16.51
2022-10-31T11:53:47.720Z,16.59
2022-10-31T11:54:47.663Z,16.64
2022-10-31T11:55:47.689Z,16.57
2022-10-31T11:56:47.691Z,16.64
2022-10-31T11:57:47.654Z,16.65
2022-10-31T11:58:47.754Z,16.69
2022-10-31T11:59:47.629Z,16.72
2022-10-31T12:00:47.639Z,16.80
2022-10-31T12:01:47.667Z,16.90
2022-10-31T12:02:47.696Z,16.94
2022-10-31T12:03:47.595Z,17.01
2022-10-31T12:04:47.608Z,17.01
2022-10-31T12:05:47.585Z,17.02
2022-10-31T12:06:47.594Z,16.96
2022-10-31T12:07:47.544Z,17.02
2022-10-31T12:08:47.524Z,17.04
2022-10-31T12:09:47.563Z,17.05
2022-10-31T12:10:47.534Z,17.14
2022-10-31T12:11:47.503Z,17.12
2022-10-31T12:12:47.492Z,17.06
2022-10-31T12:13:47.532Z,17.09
2022-10-31T12:14:50.304Z,17.12
2022-10-31T12:15:47.466Z,17.16
2022-10-31T12:16:47.445Z,17.05
2022-10-31T12:17:47.519Z,17.09
2022-10-31T12:18:47.607Z,17.14
2022-10-31T12:19:50.059Z,17.11
2022-10-31T12:20:47.558Z,17.05
2022-10-31T12:21:47.432Z,17.02
2022-10-31T12:22:47.389Z,16.98
2022-10-31T12:23:47.389Z,16.98
2022-10-31T12:24:47.409Z,17.08
2022-10-31T12:25:47.383Z,17.01
2022-10-31T12:26:47.349Z,16.87
2022-10-31T12:27:47.355Z,16.86
2022-10-31T12:28:51.206Z,16.93
2022-10-31T12:29:47.341Z,17.01
2022-10-31T12:30:47.320Z,17.11
2022-10-31T12:31:47.334Z,17.09
2022-10-31T12:32:47.359Z,17.09
2022-10-31T12:33:47.341Z,17.16
2022-10-31T12:34:49.270Z,17.19
2022-10-31T12:45:17.819Z,17.06
2022-10-31T12:46:19.176Z,17.12
2022-10-31T12:47:18.779Z,17.11
2022-10-31T12:48:18.704Z,17.14
2022-10-31T12:49:18.678Z,17.04
2022-10-31T12:50:18.897Z,16.96
2022-10-31T12:51:18.703Z,16.98
2022-10-31T12:52:26.842Z,17.06
2022-10-31T12:55:56.076Z,17.22
2022-10-31T12:59:50.685Z,17.09
2022-10-31T13:00:50.190Z,17.19
2022-10-31T13:01:50.333Z,17.20
2022-10-31T13:02:49.972Z,17.24
2022-10-31T13:03:50.008Z,17.20
2022-10-31T13:04:50.247Z,17.11
2022-10-31T13:05:50.564Z,17.12
2022-10-31T13:06:49.928Z,17.20
2022-10-31T13:07:50.190Z,17.26
2022-10-31T13:08:49.862Z,17.31
2022-10-31T13:09:49.875Z,17.24
2022-10-31T13:10:50.623Z,17.27
2022-10-31T13:11:51.594Z,17.33
2022-10-31T13:12:49.886Z,17.31
2022-10-31T13:13:50.342Z,17.37
2022-10-31T13:14:49.986Z,17.38
2022-10-31T13:15:52.328Z,17.39
2022-10-31T13:16:51.853Z,17.44
2022-10-31T13:17:49.794Z,17.37
2022-10-31T13:18:50.860Z,17.31
2022-10-31T13:19:52.123Z,17.29
2022-10-31T13:20:54.621Z,17.30
2022-10-31T13:21:49.773Z,17.33
2022-10-31T13:22:49.779Z,17.31
2022-10-31T13:23:51.495Z,17.27
2022-10-31T13:24:50.222Z,17.33
2022-10-31T13:25:50.763Z,17.29
2022-10-31T13:26:50.139Z,17.30
2022-10-31T13:27:50.872Z,17.33
2022-10-31T13:29:50.758Z,17.27
2022-10-31T13:30:50.720Z,17.30
2022-10-31T13:31:50.132Z,17.27
2022-10-31T13:32:51.276Z,17.26
2022-10-31T13:33:51.718Z,17.24
2022-10-31T13:34:50.005Z,17.19
2022-10-31T13:35:51.192Z,17.22
2022-10-31T13:36:51.166Z,17.22
2022-10-31T13:37:54.540Z,17.17
2022-10-31T13:38:49.760Z,17.20
2022-10-31T13:39:50.291Z,17.16
2022-10-31T13:40:50.093Z,17.22
2022-10-31T13:41:50.231Z,17.20
2022-10-31T13:42:50.351Z,17.22
2022-10-31T13:43:50.095Z,17.27
2022-10-31T13:44:50.517Z,17.23
2022-10-31T13:45:49.793Z,17.27
2022-10-31T13:46:53.292Z,17.27
2022-10-31T13:47:49.482Z,17.24
2022-10-31T13:48:49.445Z,17.22
2022-10-31T13:49:49.458Z,17.23
2022-10-31T13:50:49.405Z,17.17
2022-10-31T13:51:58.850Z,17.17
2022-10-31T14:02:49.380Z,17.17
2022-10-31T14:03:50.233Z,17.17
2022-10-31T14:04:30.968Z,17.19
2022-10-31T14:05:28.328Z,17.16
2022-10-31T14:06:29.788Z,17.14
2022-10-31T14:07:28.356Z,17.16
2022-10-31T14:08:28.239Z,17.12
2022-10-31T14:09:28.189Z,17.08
2022-10-31T14:10:28.264Z,17.09
2022-10-31T14:11:32.823Z,17.05
2022-10-31T14:12:28.142Z,17.05
2022-10-31T14:13:28.361Z,17.09
2022-10-31T14:14:28.195Z,17.05
2022-10-31T14:19:18.811Z,17.04
2022-10-31T14:20:18.991Z,17.02
2022-10-31T14:21:22.924Z,16.98
2022-10-31T14:22:18.800Z,16.99
2022-10-31T14:23:27.024Z,16.94
2022-10-31T14:24:26.263Z,16.96
2022-10-31T14:25:19.192Z,16.96
2022-10-31T14:26:18.768Z,16.96
2022-10-31T14:28:51.479Z,16.98
2022-10-31T14:29:40.811Z,16.98
2022-10-31T14:30:38.508Z,17.01
2022-10-31T14:31:37.966Z,17.02
2022-10-31T14:32:37.959Z,17.04
2022-10-31T14:33:38.027Z,17.05
2022-10-31T14:36:19.843Z,17.11
2022-10-31T14:43:24.031Z,16.94
2022-10-31T14:52:06.472Z,16.86
2022-10-31T14:52:11.721Z,16.84
2022-10-31T14:53:11.468Z,16.82
2022-10-31T14:54:12.276Z,16.80
2022-10-31T14:55:11.539Z,16.76
2022-10-31T14:56:11.436Z,16.76
2022-10-31T14:57:11.413Z,16.74
2022-10-31T14:58:11.395Z,16.74
2022-10-31T14:59:11.384Z,16.72
2022-10-31T15:00:11.410Z,16.69
2022-10-31T15:01:11.524Z,16.72
2022-10-31T15:02:11.891Z,16.69
2022-10-31T15:03:11.366Z,16.68
2022-10-31T15:04:23.245Z,16.69
2022-10-31T15:05:11.442Z,16.68
2022-10-31T15:06:11.452Z,16.71
2022-10-31T15:07:11.739Z,16.68
2022-10-31T15:08:12.019Z,16.65
2022-10-31T15:09:11.301Z,16.68
2022-10-31T15:10:11.286Z,16.64
2022-10-31T15:11:11.305Z,16.65
2022-10-31T15:12:11.333Z,16.66
2022-10-31T15:13:11.277Z,16.61
2022-10-31T15:14:11.348Z,16.61
2022-10-31T15:15:11.257Z,16.59
2022-10-31T15:16:11.240Z,16.54
2022-10-31T15:17:11.279Z,16.56
2022-10-31T15:18:11.210Z,16.54
2022-10-31T15:19:11.238Z,16.53
2022-10-31T15:20:11.816Z,16.53
2022-10-31T15:21:12.511Z,16.50
2022-10-31T15:22:11.359Z,16.49
2022-10-31T15:23:11.369Z,16.47
2022-10-31T15:24:11.184Z,16.43
2022-10-31T15:25:11.386Z,16.44
2022-10-31T15:26:11.413Z,16.39
2022-10-31T15:27:11.200Z,16.34
2022-10-31T15:28:11.195Z,16.29
2022-10-31T15:29:11.247Z,16.29
2022-10-31T15:30:11.331Z,16.26
2022-10-31T15:31:11.159Z,16.28
2022-10-31T15:32:11.079Z,16.24
2022-10-31T15:33:11.566Z,16.17
2022-10-31T15:34:11.373Z,16.20
2022-10-31T15:35:12.475Z,16.16
2022-10-31T15:36:11.313Z,16.16
2022-10-31T15:37:11.123Z,16.13
2022-10-31T15:38:11.149Z,16.15
2022-10-31T15:39:11.120Z,16.09
2022-10-31T15:40:11.045Z,16.10
2022-10-31T15:41:11.228Z,16.09
2022-10-31T15:42:11.081Z,16.06
2022-10-31T15:43:11.069Z,16.05
2022-10-31T15:44:11.220Z,16.06
2022-10-31T15:45:10.919Z,16.02
2022-10-31T15:46:11.085Z,16.06
2022-10-31T15:47:14.595Z,16.06
2022-10-31T15:48:11.557Z,16.05
2022-10-31T15:49:10.998Z,16.01
2022-10-31T15:50:10.973Z,16.00
2022-10-31T15:51:10.889Z,15.98
2022-10-31T15:52:10.874Z,15.92
2022-10-31T15:53:11.031Z,15.91
2022-10-31T15:54:10.889Z,15.87
2022-10-31T15:56:56.169Z,15.82
2022-10-31T16:00:56.388Z,15.73
2022-10-31T16:02:01.408Z,15.73
2022-10-31T16:02:55.938Z,15.70
2022-10-31T16:04:00.329Z,15.69
2022-10-31T16:04:55.849Z,15.72
2022-10-31T16:05:55.450Z,15.64
2022-10-31T16:06:55.835Z,15.64
2022-10-31T16:07:55.650Z,15.61
2022-10-31T16:08:55.493Z,15.58
2022-10-31T16:09:55.549Z,15.60
2022-10-31T16:10:55.555Z,15.60
2022-10-31T16:11:55.326Z,15.61
2022-10-31T16:12:55.390Z,15.61
2022-10-31T16:13:55.350Z,15.62
2022-10-31T16:14:56.879Z,15.62
2022-10-31T16:16:08.841Z,15.61
2022-10-31T16:16:55.335Z,15.60
2022-10-31T16:18:06.203Z,15.58
2022-10-31T16:18:55.222Z,15.62
2022-10-31T16:19:55.187Z,15.64
2022-10-31T16:20:57.571Z,15.64
2022-10-31T16:23:28.738Z,15.65
2022-10-31T16:24:29.891Z,15.68
2022-10-31T16:25:57.058Z,15.65
2022-10-31T16:26:29.827Z,15.75
2022-10-31T16:27:29.894Z,15.73
2022-10-31T16:28:32.007Z,15.79
2022-10-31T16:35:32.637Z,15.80
2022-10-31T16:42:27.950Z,15.76
2022-10-31T16:43:28.805Z,15.77
2022-10-31T16:51:16.754Z,15.48
2022-10-31T16:52:17.768Z,15.50
2022-10-31T16:53:17.058Z,15.46
2022-10-31T16:54:17.749Z,15.50
2022-10-31T16:58:21.900Z,15.64
2022-10-31T16:59:22.708Z,15.58
2022-10-31T17:00:22.714Z,15.61
2022-10-31T17:01:22.824Z,15.65
2022-10-31T17:02:24.115Z,15.65
2022-10-31T17:03:24.100Z,15.68
2022-10-31T17:06:14.823Z,15.72
2022-10-31T17:15:46.183Z,15.72
2022-10-31T17:15:51.423Z,15.69
2022-10-31T17:16:53.116Z,15.68
2022-10-31T17:17:51.188Z,15.64
2022-10-31T17:18:51.372Z,15.62
2022-10-31T17:21:54.757Z,15.62
2022-10-31T17:22:29.849Z,15.58
2022-10-31T17:23:30.394Z,15.52
2022-10-31T17:28:26.278Z,15.55
2022-10-31T17:28:38.924Z,15.54
2022-10-31T17:31:18.082Z,15.51
2022-10-31T17:35:41.846Z,15.64
2022-10-31T17:48:12.064Z,15.62
2022-10-31T17:53:39.386Z,15.69
2022-10-31T17:53:46.156Z,15.69
2022-10-31T17:57:07.098Z,15.65
2022-10-31T18:01:54.417Z,15.68
2022-10-31T18:02:59.945Z,15.62
2022-10-31T18:03:52.385Z,15.65
2022-10-31T18:04:52.468Z,15.69
2022-10-31T18:05:53.213Z,15.62
2022-10-31T18:06:52.566Z,15.60
2022-10-31T18:07:52.385Z,15.64
2022-10-31T18:08:52.266Z,15.65
2022-10-31T18:09:52.268Z,15.70
2022-10-31T18:10:52.501Z,15.79
2022-10-31T18:11:52.360Z,15.82
2022-10-31T18:12:52.269Z,15.88
2022-10-31T18:13:52.179Z,15.97
2022-10-31T18:14:52.153Z,16.05
2022-10-31T18:15:52.213Z,16.15
2022-10-31T18:19:41.712Z,16.24
2022-10-31T18:32:17.705Z,16.21
2022-10-31T18:33:18.581Z,16.17
2022-10-31T18:34:18.474Z,16.24
2022-10-31T18:35:18.435Z,16.26
2022-10-31T18:36:18.399Z,16.28
2022-10-31T18:37:18.450Z,16.26
2022-10-31T18:38:18.339Z,16.25
2022-10-31T18:39:18.333Z,16.24
2022-10-31T18:40:18.416Z,16.17
2022-10-31T18:41:18.296Z,16.24
2022-10-31T19:13:40.396Z,16.00
2022-10-31T19:17:06.482Z,15.91
2022-10-31T19:35:04.041Z,15.73
2022-10-31T19:36:04.918Z,15.70
2022-10-31T22:13:26.711Z,14.50
2022-10-31T22:14:28.131Z,14.45
2022-10-31T22:15:27.579Z,14.40
2022-10-31T22:16:27.493Z,14.38
2022-10-31T22:31:00.061Z,14.23
2022-10-31T22:38:35.821Z,14.03
2022-10-31T22:39:36.817Z,14.04
2022-10-31T23:18:48.965Z,13.92
2022-10-31T23:19:28.417Z,13.88
2022-10-31T23:20:28.399Z,13.89
